Larrabee, Iowa
Current Conditions -  °F | °C
As of 4:35 PM on Friday 19 Dec 2014 (Local Time) from KCKP Reporting Station
Haze Haze  
Wind Chill: 24°   Ceiling: 1600
Heat Index: 32°   Visibility: 5mi
Dew Point: 29°   Wind: 9mph
Humidity: 89%   Direction: 180°S
Pressure: 30.15"   Gusts: NA
Location:  42.86°N, 95.55°W
Report Text: KCKP 192235Z AUTO 18008KT 5SM BR OVC016 00/M01 A3015 RMK AO2 T00011015
Loading
Personal Weather Stations






























Interactive Weather Map New forecast layout! Learn more

10-Day Weather Forecast

Advertisements
Track Severe Weather on mobile